createdAt,value
2022-10-19T03:56:46.702Z,101362.30
2022-10-19T04:00:12.726Z,101361.23
2022-10-19T04:07:04.467Z,101364.79
2022-10-19T04:10:28.498Z,101366.61
2022-10-19T04:13:52.751Z,101362.56
2022-10-19T04:17:16.044Z,101367.89
2022-10-19T04:20:42.150Z,101372.73
2022-10-19T04:24:07.865Z,101369.88
2022-10-19T04:27:31.393Z,101367.39
2022-10-19T04:30:56.503Z,101367.69
2022-10-19T04:34:20.524Z,101374.61
2022-10-19T04:37:43.821Z,101378.42
2022-10-19T04:41:09.654Z,101383.33
2022-10-19T04:44:32.856Z,101384.56
2022-10-19T04:47:56.143Z,101383.90
2022-10-19T04:51:19.896Z,101380.24
2022-10-19T04:54:42.885Z,101380.08
2022-10-19T04:58:05.959Z,101378.20
2022-10-19T05:01:30.749Z,101381.71
2022-10-19T05:04:54.346Z,101385.02
2022-10-19T05:08:17.416Z,101389.02
2022-10-19T05:11:40.544Z,101390.45
2022-10-19T05:15:04.885Z,101390.31
2022-10-19T05:18:28.953Z,101390.65
2022-10-19T05:21:52.047Z,101387.55
2022-10-19T05:25:15.391Z,101383.73
2022-10-19T05:28:39.166Z,101380.61
2022-10-19T05:32:02.217Z,101383.58
2022-10-19T05:35:26.069Z,101390.91
2022-10-19T05:38:51.035Z,101392.63
2022-10-19T05:42:14.143Z,101394.00
2022-10-19T05:45:37.722Z,101398.52
2022-10-19T05:49:01.562Z,101406.24
2022-10-19T05:52:24.832Z,101405.28
2022-10-19T05:55:47.976Z,101408.34
2022-10-19T05:59:15.222Z,101406.30
2022-10-19T06:02:38.522Z,101412.00
2022-10-19T06:06:03.358Z,101416.77
2022-10-19T06:09:27.159Z,101420.91
2022-10-19T06:12:50.358Z,101421.23
2022-10-19T06:16:15.658Z,101426.41
2022-10-19T06:19:39.161Z,101426.73
2022-10-19T06:23:02.470Z,101434.20
2022-10-19T06:26:26.564Z,101437.66
2022-10-19T06:29:49.643Z,101434.87
2022-10-19T06:33:12.857Z,101437.61
2022-10-19T06:36:36.507Z,101437.21
2022-10-19T06:40:03.597Z,101435.95
2022-10-19T06:43:30.145Z,101445.39
2022-10-19T06:46:53.568Z,101449.52
2022-10-19T06:50:17.132Z,101453.70
2022-10-19T06:53:40.670Z,101452.83
2022-10-19T06:57:03.869Z,101454.67
2022-10-19T07:00:26.983Z,101457.87
2022-10-19T07:03:52.022Z,101460.69
2022-10-19T07:07:15.112Z,101463.73
2022-10-19T07:10:38.415Z,101467.38
2022-10-19T07:14:01.482Z,101468.05
2022-10-19T07:17:24.674Z,101469.42
2022-10-19T07:20:55.494Z,101474.83
2022-10-19T07:24:19.224Z,101475.50
2022-10-19T07:27:42.584Z,101476.48
2022-10-19T07:31:08.356Z,101477.64
2022-10-19T07:34:31.536Z,101472.38
2022-10-19T07:37:54.626Z,101478.55
2022-10-19T07:41:19.856Z,101481.67
2022-10-19T07:44:43.128Z,101484.48
2022-10-19T07:48:06.861Z,101485.16
2022-10-19T07:51:30.163Z,101485.61
2022-10-19T07:54:54.730Z,101486.08
2022-10-19T07:58:17.753Z,101491.83
2022-10-19T08:01:41.625Z,101488.75
2022-10-19T08:05:07.996Z,101489.42
2022-10-19T08:08:33.791Z,101486.37
2022-10-19T08:11:57.598Z,101485.69
2022-10-19T08:15:20.797Z,101488.69
2022-10-19T08:18:43.881Z,101489.85
2022-10-19T08:22:07.219Z,101490.78
2022-10-19T08:25:30.502Z,101488.15
2022-10-19T08:28:58.189Z,101495.97
2022-10-19T08:32:21.532Z,101501.08
2022-10-19T08:35:44.886Z,101500.77
2022-10-19T08:39:11.832Z,101497.11
2022-10-19T08:42:47.142Z,101488.73
2022-10-19T08:46:19.428Z,101483.27
2022-10-19T08:49:42.835Z,101490.45
2022-10-19T08:53:11.571Z,101479.72
2022-10-19T08:56:50.561Z,101482.66
2022-10-19T09:00:23.860Z,101488.21
2022-10-19T09:03:55.309Z,101492.58
2022-10-19T09:07:26.090Z,101495.74
2022-10-19T09:10:50.602Z,101497.81
2022-10-19T09:14:22.067Z,101501.44
2022-10-19T09:17:45.167Z,101504.72
2022-10-19T09:21:14.824Z,101505.70
2022-10-19T09:24:42.614Z,101514.41
2022-10-19T09:28:19.768Z,101518.38
2022-10-19T09:31:42.908Z,101518.98
2022-10-19T09:35:17.397Z,101523.77
2022-10-19T09:38:40.539Z,101522.12
2022-10-19T09:42:20.614Z,101528.98
2022-10-19T09:45:49.462Z,101532.45
2022-10-19T09:49:12.643Z,101536.94
2022-10-19T09:52:38.108Z,101535.73
2022-10-19T09:56:05.974Z,101540.33
2022-10-19T09:59:33.435Z,101545.52
2022-10-19T10:02:56.724Z,101545.27
2022-10-19T10:06:21.977Z,101543.84
2022-10-19T10:09:45.457Z,101545.30
2022-10-19T10:13:16.369Z,101538.34
2022-10-19T10:16:39.623Z,101541.67
2022-10-19T10:20:17.623Z,101542.23
2022-10-19T10:23:41.183Z,101539.39
2022-10-19T10:27:06.109Z,101544.85
2022-10-19T10:30:35.378Z,101544.45
2022-10-19T10:34:10.716Z,101544.86
2022-10-19T10:37:46.371Z,101546.52
2022-10-19T10:41:15.579Z,101547.30
2022-10-19T10:44:45.111Z,101547.10
2022-10-19T10:48:20.173Z,101539.34
2022-10-19T10:51:50.649Z,101547.14
2022-10-19T10:55:18.370Z,101556.48
2022-10-19T10:58:48.202Z,101581.63
2022-10-19T11:02:19.406Z,101583.09
2022-10-19T11:05:45.574Z,101585.36
2022-10-19T11:09:17.036Z,101592.28
2022-10-19T11:12:44.928Z,101600.41
2022-10-19T11:16:14.612Z,101604.11
2022-10-19T11:19:41.415Z,101611.69
2022-10-19T11:23:13.466Z,101610.35
2022-10-19T11:26:48.613Z,101609.61
2022-10-19T11:30:14.683Z,101603.02
2022-10-19T11:33:53.371Z,101599.23
2022-10-19T11:37:24.789Z,101602.41
2022-10-19T11:41:17.855Z,101594.48
2022-10-19T11:44:57.145Z,101590.23
2022-10-19T11:48:37.666Z,101583.06
2022-10-19T11:52:07.282Z,101580.83
2022-10-19T11:55:40.938Z,101582.61
2022-10-19T11:59:14.915Z,101582.31
2022-10-19T12:03:06.373Z,101575.18
2022-10-19T12:06:35.919Z,101573.58
2022-10-19T12:10:02.999Z,101577.27
2022-10-19T12:13:33.949Z,101572.27
2022-10-19T12:17:01.869Z,101574.95
2022-10-19T12:20:32.301Z,101579.45
2022-10-19T12:23:58.543Z,101577.60
2022-10-19T12:27:29.446Z,101577.20
2022-10-19T12:30:53.373Z,101574.42
2022-10-19T12:34:27.271Z,101574.34
2022-10-19T12:37:57.571Z,101575.30
2022-10-19T12:41:29.051Z,101571.25
2022-10-19T12:45:14.332Z,101568.02
2022-10-19T12:48:38.620Z,101565.36
2022-10-19T12:52:02.966Z,101567.69
2022-10-19T12:55:33.947Z,101576.25
2022-10-19T12:59:00.682Z,101579.98
2022-10-19T13:02:28.115Z,101578.88
2022-10-19T13:05:57.366Z,101578.07
2022-10-19T13:09:26.117Z,101573.91
2022-10-19T13:12:50.374Z,101571.63
2022-10-19T13:16:48.226Z,101572.45
2022-10-19T13:20:48.056Z,101571.27
2022-10-19T13:24:30.439Z,101567.71
2022-10-19T13:27:55.183Z,101564.02
2022-10-19T13:31:27.663Z,101567.21
2022-10-19T13:34:50.774Z,101571.83
2022-10-19T13:38:31.514Z,101573.58
2022-10-19T13:41:56.430Z,101580.25
2022-10-19T13:45:23.559Z,101579.98
2022-10-19T13:49:17.144Z,101587.40
2022-10-19T13:53:27.282Z,101589.52
2022-10-19T13:57:05.778Z,101589.20
2022-10-19T14:00:34.657Z,101587.63
2022-10-19T14:04:17.202Z,101590.56
2022-10-19T14:07:49.037Z,101588.21
2022-10-19T14:11:16.692Z,101588.58
2022-10-19T14:18:24.156Z,101582.88
2022-10-19T14:21:47.552Z,101586.11
2022-10-19T14:25:19.886Z,101588.06
2022-10-19T14:28:43.180Z,101586.06
2022-10-19T14:32:08.353Z,101593.51
2022-10-19T14:35:33.864Z,101598.55
2022-10-19T14:38:57.294Z,101591.05
2022-10-19T14:42:20.355Z,101595.50
2022-10-19T14:45:43.492Z,101597.44
2022-10-19T14:49:09.926Z,101597.98
2022-10-19T14:52:37.934Z,101599.80
2022-10-19T14:56:05.821Z,101602.94
2022-10-19T14:59:31.865Z,101609.39
2022-10-19T15:03:00.292Z,101609.91
2022-10-19T15:06:28.009Z,101609.48
2022-10-19T15:09:54.659Z,101612.48
2022-10-19T15:13:24.913Z,101616.34
2022-10-19T15:16:52.205Z,101611.88
2022-10-19T15:20:25.011Z,101619.21
2022-10-19T15:23:49.143Z,101624.51
2022-10-19T15:27:20.825Z,101624.77
2022-10-19T15:30:43.890Z,101624.63
2022-10-19T15:34:21.666Z,101629.20
2022-10-19T15:37:47.888Z,101631.80
2022-10-19T15:41:19.015Z,101636.55
2022-10-19T15:44:43.758Z,101636.44
2022-10-19T15:48:26.135Z,101640.83
2022-10-19T15:51:50.256Z,101643.77
2022-10-19T15:55:16.612Z,101644.92
2022-10-19T15:58:39.646Z,101642.42
2022-10-19T16:02:12.329Z,101649.70
2022-10-19T16:05:36.560Z,101650.80
2022-10-19T16:09:01.086Z,101654.67
2022-10-19T16:12:26.506Z,101657.48
2022-10-19T16:15:56.783Z,101662.52
2022-10-19T16:19:33.411Z,101666.40
2022-10-19T16:22:57.394Z,101669.09
2022-10-19T16:26:21.780Z,101672.33
2022-10-19T16:29:45.287Z,101677.15
2022-10-19T16:33:08.621Z,101679.57
2022-10-19T16:36:31.765Z,101679.71
2022-10-19T16:39:55.018Z,101679.60
2022-10-19T16:43:17.984Z,101685.29
2022-10-19T16:46:41.421Z,101686.00
2022-10-19T16:50:06.748Z,101690.19
2022-10-19T16:53:29.983Z,101699.56
2022-10-19T16:56:54.831Z,101701.84
2022-10-19T17:00:18.060Z,101707.73
2022-10-19T17:03:41.119Z,101709.24
2022-10-19T17:07:04.720Z,101710.14
2022-10-19T17:10:28.105Z,101718.88
2022-10-19T17:13:53.680Z,101724.19
2022-10-19T17:17:17.048Z,101727.14
2022-10-19T17:20:40.182Z,101732.20
2022-10-19T17:24:05.437Z,101731.20
2022-10-19T17:27:28.639Z,101733.61
2022-10-19T17:30:52.123Z,101740.60
2022-10-19T17:34:15.266Z,101738.35
2022-10-19T17:37:39.011Z,101743.82
2022-10-19T17:41:04.287Z,101743.11
2022-10-19T17:44:28.143Z,101745.84
2022-10-19T17:47:51.252Z,101749.33
2022-10-19T17:51:17.232Z,101748.48
2022-10-19T17:54:48.858Z,101753.61
2022-10-19T17:58:23.487Z,101755.86
2022-10-19T18:01:46.730Z,101762.34
2022-10-19T18:05:10.686Z,101765.77
2022-10-19T18:08:36.878Z,101767.91
2022-10-19T18:12:03.469Z,101768.07
2022-10-19T18:15:29.471Z,101768.45
2022-10-19T18:18:56.264Z,101768.92
2022-10-19T18:22:21.136Z,101774.51
2022-10-19T18:25:53.818Z,101776.59
2022-10-19T18:29:20.764Z,101775.90
2022-10-19T18:32:43.836Z,101775.41
2022-10-19T18:36:09.792Z,101775.90
2022-10-19T18:39:32.968Z,101773.71
2022-10-19T18:42:56.588Z,101774.60
2022-10-19T18:46:20.759Z,101779.08
2022-10-19T18:49:43.804Z,101779.96
2022-10-19T18:53:06.867Z,101784.55
2022-10-19T18:56:32.618Z,101788.49
2022-10-19T18:59:55.792Z,101786.02
2022-10-19T19:03:19.893Z,101786.77
2022-10-19T19:06:42.952Z,101790.81
2022-10-19T19:10:07.613Z,101795.70
2022-10-19T19:13:30.962Z,101802.18
2022-10-19T19:16:54.240Z,101806.63
2022-10-19T19:20:17.622Z,101808.77
2022-10-19T19:23:40.729Z,101813.50
2022-10-19T19:27:04.247Z,101817.20
2022-10-19T19:30:27.612Z,101818.31
2022-10-19T19:33:51.536Z,101816.11
2022-10-19T19:37:15.212Z,101815.59
2022-10-19T19:40:40.730Z,101810.87
2022-10-19T19:44:04.238Z,101815.38
2022-10-19T19:47:27.379Z,101813.58
2022-10-19T19:50:50.711Z,101814.15
2022-10-19T19:54:13.936Z,101821.77
2022-10-19T19:57:37.386Z,101824.70
2022-10-19T20:01:12.121Z,101823.33
2022-10-19T20:04:36.514Z,101830.23
2022-10-19T20:08:00.723Z,101826.91
2022-10-19T20:11:25.433Z,101830.77
2022-10-19T20:14:48.545Z,101832.63
2022-10-19T20:18:11.566Z,101830.11
2022-10-19T20:21:34.583Z,101832.67
2022-10-19T20:24:57.626Z,101836.73
2022-10-19T20:28:21.348Z,101834.34
2022-10-19T20:31:44.669Z,101832.89
2022-10-19T20:35:08.798Z,101838.80
2022-10-19T20:38:32.089Z,101837.98
2022-10-19T20:41:55.221Z,101838.01
2022-10-19T20:45:18.381Z,101833.27
2022-10-19T20:48:41.571Z,101834.48
2022-10-19T20:52:04.860Z,101836.04
2022-10-19T20:55:27.965Z,101844.18
2022-10-19T20:58:55.685Z,101845.92
2022-10-19T21:02:18.815Z,101848.76
2022-10-19T21:05:41.839Z,101841.23
2022-10-19T21:09:05.270Z,101841.50
2022-10-19T21:12:28.360Z,101843.98
2022-10-19T21:15:51.458Z,101843.53
2022-10-19T21:19:17.167Z,101848.15
2022-10-19T21:22:41.087Z,101852.54
2022-10-19T21:26:04.468Z,101850.70
2022-10-19T21:29:27.680Z,101859.65
2022-10-19T21:32:50.786Z,101861.42
2022-10-19T21:36:15.110Z,101865.66
2022-10-19T21:39:38.923Z,101860.21
2022-10-19T21:43:02.388Z,101855.27
2022-10-19T21:46:26.233Z,101857.86
2022-10-19T21:49:49.279Z,101860.46
2022-10-19T21:53:12.290Z,101864.58
2022-10-19T21:56:36.436Z,101861.96
2022-10-19T21:59:59.796Z,101869.55
2022-10-19T22:03:22.822Z,101867.88
2022-10-19T22:06:46.763Z,101866.70
2022-10-19T22:10:10.418Z,101866.92
2022-10-19T22:13:34.227Z,101869.02
2022-10-19T22:16:57.338Z,101873.88
2022-10-19T22:20:20.645Z,101873.71
2022-10-19T22:23:44.580Z,101877.36
2022-10-19T22:27:07.988Z,101880.72
2022-10-19T22:30:31.267Z,101882.25
2022-10-19T22:33:54.399Z,101883.65
2022-10-19T22:37:17.623Z,101881.80
2022-10-19T22:40:40.665Z,101880.58
2022-10-19T22:44:04.124Z,101877.79
2022-10-19T22:47:27.442Z,101887.10
